sensor_id;sensor_type;location;lat;lon;timestamp;P1;durP1;ratioP1;P2;durP2;ratioP2
23250;SDS011;11794;49.730;10.088;2023-06-14T00:00:11;6.85;;;3.08;;
23250;SDS011;11794;49.730;10.088;2023-06-14T00:02:38;7.38;;;3.35;;
23250;SDS011;11794;49.730;10.088;2023-06-14T00:05:05;7.07;;;3.47;;
23250;SDS011;11794;49.730;10.088;2023-06-14T00:07:38;7.97;;;3.40;;
23250;SDS011;11794;49.730;10.088;2023-06-14T00:10:08;10.40;;;3.40;;
23250;SDS011;11794;49.730;10.088;2023-06-14T00:12:34;8.70;;;3.20;;
23250;SDS011;11794;49.730;10.088;2023-06-14T00:15:01;7.50;;;3.60;;
23250;SDS011;11794;49.730;10.088;2023-06-14T00:17:27;6.45;;;3.60;;
23250;SDS011;11794;49.730;10.088;2023-06-14T00:19:56;6.88;;;3.40;;
23250;SDS011;11794;49.730;10.088;2023-06-14T00:22:22;6.45;;;3.50;;
23250;SDS011;11794;49.730;10.088;2023-06-14T00:24:49;7.05;;;3.38;;
23250;SDS011;11794;49.730;10.088;2023-06-14T00:27:15;8.27;;;3.50;;
23250;SDS011;11794;49.730;10.088;2023-06-14T00:29:41;8.33;;;3.93;;
23250;SDS011;11794;49.730;10.088;2023-06-14T00:32:07;8.67;;;3.60;;
23250;SDS011;11794;49.730;10.088;2023-06-14T00:34:32;8.57;;;3.97;;
23250;SDS011;11794;49.730;10.088;2023-06-14T00:36:58;8.27;;;3.75;;
23250;SDS011;11794;49.730;10.088;2023-06-14T00:39:24;9.15;;;3.63;;
23250;SDS011;11794;49.730;10.088;2023-06-14T00:41:50;8.50;;;3.60;;
23250;SDS011;11794;49.730;10.088;2023-06-14T00:44:16;7.43;;;3.10;;
23250;SDS011;11794;49.730;10.088;2023-06-14T00:46:42;8.57;;;3.58;;
23250;SDS011;11794;49.730;10.088;2023-06-14T00:49:08;7.43;;;3.70;;
23250;SDS011;11794;49.730;10.088;2023-06-14T00:51:35;8.25;;;3.70;;
23250;SDS011;11794;49.730;10.088;2023-06-14T00:54:02;9.55;;;4.30;;
23250;SDS011;11794;49.730;10.088;2023-06-14T00:56:28;8.73;;;3.33;;
23250;SDS011;11794;49.730;10.088;2023-06-14T00:58:54;10.17;;;3.93;;
23250;SDS011;11794;49.730;10.088;2023-06-14T01:01:20;8.10;;;4.00;;
23250;SDS011;11794;49.730;10.088;2023-06-14T01:03:46;8.98;;;3.50;;
23250;SDS011;11794;49.730;10.088;2023-06-14T01:06:19;7.20;;;3.50;;
23250;SDS011;11794;49.730;10.088;2023-06-14T01:11:51;8.40;;;3.43;;
23250;SDS011;11794;49.730;10.088;2023-06-14T01:14:25;7.50;;;3.40;;
23250;SDS011;11794;49.730;10.088;2023-06-14T01:16:53;7.85;;;3.15;;
23250;SDS011;11794;49.730;10.088;2023-06-14T01:19:20;6.72;;;3.20;;
23250;SDS011;11794;49.730;10.088;2023-06-14T01:21:47;9.23;;;3.47;;
23250;SDS011;11794;49.730;10.088;2023-06-14T01:24:16;7.93;;;3.38;;
23250;SDS011;11794;49.730;10.088;2023-06-14T01:26:44;7.95;;;3.25;;
23250;SDS011;11794;49.730;10.088;2023-06-14T01:29:11;6.78;;;3.13;;
23250;SDS011;11794;49.730;10.088;2023-06-14T01:31:42;6.70;;;3.00;;
23250;SDS011;11794;49.730;10.088;2023-06-14T01:34:08;7.83;;;3.27;;
23250;SDS011;11794;49.730;10.088;2023-06-14T01:36:35;7.78;;;3.30;;
23250;SDS011;11794;49.730;10.088;2023-06-14T01:39:05;9.52;;;3.63;;
23250;SDS011;11794;49.730;10.088;2023-06-14T01:41:31;6.68;;;3.00;;
23250;SDS011;11794;49.730;10.088;2023-06-14T01:43:59;9.93;;;3.08;;
23250;SDS011;11794;49.730;10.088;2023-06-14T01:46:26;6.80;;;3.35;;
23250;SDS011;11794;49.730;10.088;2023-06-14T01:48:51;7.47;;;3.20;;
23250;SDS011;11794;49.730;10.088;2023-06-14T01:51:17;7.95;;;3.15;;
23250;SDS011;11794;49.730;10.088;2023-06-14T01:53:42;10.10;;;3.40;;
23250;SDS011;11794;49.730;10.088;2023-06-14T01:56:08;8.10;;;3.27;;
23250;SDS011;11794;49.730;10.088;2023-06-14T01:58:33;8.82;;;3.38;;
23250;SDS011;11794;49.730;10.088;2023-06-14T02:00:59;6.67;;;3.17;;
23250;SDS011;11794;49.730;10.088;2023-06-14T02:03:25;6.63;;;3.13;;
23250;SDS011;11794;49.730;10.088;2023-06-14T02:05:51;7.73;;;3.27;;
23250;SDS011;11794;49.730;10.088;2023-06-14T02:08:17;7.10;;;3.15;;
23250;SDS011;11794;49.730;10.088;2023-06-14T02:10:42;9.97;;;3.20;;
23250;SDS011;11794;49.730;10.088;2023-06-14T02:13:08;9.82;;;3.55;;
23250;SDS011;11794;49.730;10.088;2023-06-14T02:15:34;7.13;;;3.33;;
23250;SDS011;11794;49.730;10.088;2023-06-14T02:18:01;9.93;;;3.47;;
23250;SDS011;11794;49.730;10.088;2023-06-14T02:20:27;8.35;;;3.85;;
23250;SDS011;11794;49.730;10.088;2023-06-14T02:22:53;7.38;;;3.65;;
23250;SDS011;11794;49.730;10.088;2023-06-14T02:25:18;8.57;;;3.60;;
23250;SDS011;11794;49.730;10.088;2023-06-14T02:27:44;8.07;;;3.17;;
23250;SDS011;11794;49.730;10.088;2023-06-14T02:30:10;7.97;;;3.67;;
23250;SDS011;11794;49.730;10.088;2023-06-14T02:32:36;8.87;;;3.73;;
23250;SDS011;11794;49.730;10.088;2023-06-14T02:35:01;7.80;;;3.80;;
23250;SDS011;11794;49.730;10.088;2023-06-14T02:37:27;9.77;;;3.35;;
23250;SDS011;11794;49.730;10.088;2023-06-14T02:39:53;8.33;;;3.40;;
23250;SDS011;11794;49.730;10.088;2023-06-14T02:42:18;7.38;;;3.47;;
23250;SDS011;11794;49.730;10.088;2023-06-14T02:44:44;7.67;;;3.50;;
23250;SDS011;11794;49.730;10.088;2023-06-14T02:47:11;9.13;;;3.60;;
23250;SDS011;11794;49.730;10.088;2023-06-14T02:49:37;9.10;;;3.40;;
23250;SDS011;11794;49.730;10.088;2023-06-14T02:52:03;8.57;;;3.23;;
23250;SDS011;11794;49.730;10.088;2023-06-14T02:54:29;9.17;;;3.53;;
23250;SDS011;11794;49.730;10.088;2023-06-14T02:56:55;8.98;;;3.67;;
23250;SDS011;11794;49.730;10.088;2023-06-14T02:59:21;7.67;;;3.60;;
23250;SDS011;11794;49.730;10.088;2023-06-14T03:01:46;8.07;;;3.67;;
23250;SDS011;11794;49.730;10.088;2023-06-14T03:04:12;9.23;;;3.57;;
23250;SDS011;11794;49.730;10.088;2023-06-14T03:06:37;6.73;;;3.10;;
23250;SDS011;11794;49.730;10.088;2023-06-14T03:09:04;7.05;;;3.25;;
23250;SDS011;11794;49.730;10.088;2023-06-14T03:11:30;8.30;;;4.00;;
23250;SDS011;11794;49.730;10.088;2023-06-14T03:13:56;7.38;;;3.58;;
23250;SDS011;11794;49.730;10.088;2023-06-14T03:16:22;8.07;;;3.60;;
23250;SDS011;11794;49.730;10.088;2023-06-14T03:18:49;7.68;;;3.40;;
23250;SDS011;11794;49.730;10.088;2023-06-14T03:21:16;9.82;;;3.78;;
23250;SDS011;11794;49.730;10.088;2023-06-14T03:23:42;7.63;;;3.25;;
23250;SDS011;11794;49.730;10.088;2023-06-14T03:26:09;8.77;;;3.55;;
23250;SDS011;11794;49.730;10.088;2023-06-14T03:28:37;8.17;;;3.20;;
23250;SDS011;11794;49.730;10.088;2023-06-14T03:31:03;7.05;;;3.22;;
23250;SDS011;11794;49.730;10.088;2023-06-14T03:33:28;8.33;;;3.43;;
23250;SDS011;11794;49.730;10.088;2023-06-14T03:35:54;7.90;;;3.50;;
23250;SDS011;11794;49.730;10.088;2023-06-14T03:38:21;7.17;;;3.33;;
23250;SDS011;11794;49.730;10.088;2023-06-14T03:40:46;6.93;;;3.27;;
23250;SDS011;11794;49.730;10.088;2023-06-14T03:43:12;10.07;;;3.90;;
23250;SDS011;11794;49.730;10.088;2023-06-14T03:45:38;10.05;;;3.22;;
23250;SDS011;11794;49.730;10.088;2023-06-14T03:48:03;7.83;;;3.27;;
23250;SDS011;11794;49.730;10.088;2023-06-14T03:50:31;8.10;;;3.17;;
23250;SDS011;11794;49.730;10.088;2023-06-14T03:52:57;7.53;;;3.40;;
23250;SDS011;11794;49.730;10.088;2023-06-14T03:55:23;8.53;;;3.63;;
23250;SDS011;11794;49.730;10.088;2023-06-14T03:57:50;10.15;;;3.63;;
23250;SDS011;11794;49.730;10.088;2023-06-14T04:00:16;8.13;;;3.13;;
23250;SDS011;11794;49.730;10.088;2023-06-14T04:02:43;8.60;;;3.50;;
23250;SDS011;11794;49.730;10.088;2023-06-14T04:05:09;7.43;;;3.55;;
23250;SDS011;11794;49.730;10.088;2023-06-14T04:07:35;7.53;;;3.23;;
23250;SDS011;11794;49.730;10.088;2023-06-14T04:10:05;7.68;;;3.60;;
23250;SDS011;11794;49.730;10.088;2023-06-14T04:12:31;6.82;;;3.05;;
23250;SDS011;11794;49.730;10.088;2023-06-14T04:14:57;9.27;;;3.33;;
23250;SDS011;11794;49.730;10.088;2023-06-14T04:17:22;7.97;;;3.40;;
23250;SDS011;11794;49.730;10.088;2023-06-14T04:19:48;9.40;;;4.13;;
23250;SDS011;11794;49.730;10.088;2023-06-14T04:22:13;8.00;;;3.70;;
23250;SDS011;11794;49.730;10.088;2023-06-14T04:24:39;10.55;;;3.45;;
23250;SDS011;11794;49.730;10.088;2023-06-14T04:27:07;7.83;;;3.57;;
23250;SDS011;11794;49.730;10.088;2023-06-14T04:29:33;8.13;;;3.33;;
23250;SDS011;11794;49.730;10.088;2023-06-14T04:31:58;7.32;;;3.50;;
23250;SDS011;11794;49.730;10.088;2023-06-14T04:34:25;8.93;;;3.47;;
23250;SDS011;11794;49.730;10.088;2023-06-14T04:36:55;7.45;;;3.50;;
23250;SDS011;11794;49.730;10.088;2023-06-14T04:39:21;8.55;;;3.80;;
23250;SDS011;11794;49.730;10.088;2023-06-14T04:41:47;8.95;;;3.80;;
23250;SDS011;11794;49.730;10.088;2023-06-14T04:44:16;7.13;;;3.45;;
23250;SDS011;11794;49.730;10.088;2023-06-14T04:46:43;7.50;;;3.40;;
23250;SDS011;11794;49.730;10.088;2023-06-14T04:49:12;8.52;;;3.67;;
23250;SDS011;11794;49.730;10.088;2023-06-14T04:51:40;9.63;;;3.50;;
23250;SDS011;11794;49.730;10.088;2023-06-14T04:54:07;9.90;;;3.23;;
23250;SDS011;11794;49.730;10.088;2023-06-14T04:56:35;8.18;;;3.50;;
23250;SDS011;11794;49.730;10.088;2023-06-14T04:59:02;10.25;;;3.95;;
23250;SDS011;11794;49.730;10.088;2023-06-14T05:01:29;9.18;;;3.90;;
23250;SDS011;11794;49.730;10.088;2023-06-14T05:03:56;8.40;;;3.55;;
23250;SDS011;11794;49.730;10.088;2023-06-14T05:06:22;8.20;;;3.87;;
23250;SDS011;11794;49.730;10.088;2023-06-14T05:08:48;9.05;;;3.60;;
23250;SDS011;11794;49.730;10.088;2023-06-14T05:11:13;8.83;;;3.90;;
23250;SDS011;11794;49.730;10.088;2023-06-14T05:13:39;9.63;;;3.25;;
23250;SDS011;11794;49.730;10.088;2023-06-14T05:16:05;7.70;;;3.37;;
23250;SDS011;11794;49.730;10.088;2023-06-14T05:18:31;7.18;;;3.58;;
23250;SDS011;11794;49.730;10.088;2023-06-14T05:20:59;8.18;;;3.60;;
23250;SDS011;11794;49.730;10.088;2023-06-14T05:23:25;10.27;;;3.83;;
23250;SDS011;11794;49.730;10.088;2023-06-14T05:25:50;8.60;;;3.70;;
23250;SDS011;11794;49.730;10.088;2023-06-14T05:28:16;7.70;;;3.45;;
23250;SDS011;11794;49.730;10.088;2023-06-14T05:30:41;8.93;;;3.70;;
23250;SDS011;11794;49.730;10.088;2023-06-14T05:33:07;9.17;;;3.47;;
23250;SDS011;11794;49.730;10.088;2023-06-14T05:35:33;8.57;;;3.53;;
23250;SDS011;11794;49.730;10.088;2023-06-14T05:37:58;7.63;;;3.45;;
23250;SDS011;11794;49.730;10.088;2023-06-14T05:40:24;8.80;;;3.20;;
23250;SDS011;11794;49.730;10.088;2023-06-14T05:42:49;9.30;;;3.93;;
23250;SDS011;11794;49.730;10.088;2023-06-14T05:45:15;7.82;;;3.78;;
23250;SDS011;11794;49.730;10.088;2023-06-14T05:47:41;7.63;;;3.40;;
23250;SDS011;11794;49.730;10.088;2023-06-14T05:50:07;7.57;;;3.70;;
23250;SDS011;11794;49.730;10.088;2023-06-14T05:52:33;7.60;;;3.67;;
23250;SDS011;11794;49.730;10.088;2023-06-14T05:55:00;9.15;;;3.63;;
23250;SDS011;11794;49.730;10.088;2023-06-14T05:57:25;8.10;;;3.40;;
23250;SDS011;11794;49.730;10.088;2023-06-14T05:59:51;7.70;;;3.60;;
23250;SDS011;11794;49.730;10.088;2023-06-14T06:02:16;7.77;;;3.47;;
23250;SDS011;11794;49.730;10.088;2023-06-14T06:04:42;9.07;;;3.63;;
23250;SDS011;11794;49.730;10.088;2023-06-14T06:07:07;8.27;;;3.88;;
23250;SDS011;11794;49.730;10.088;2023-06-14T06:09:33;8.97;;;3.87;;
23250;SDS011;11794;49.730;10.088;2023-06-14T06:11:58;9.10;;;4.10;;
23250;SDS011;11794;49.730;10.088;2023-06-14T06:14:24;9.47;;;3.73;;
23250;SDS011;11794;49.730;10.088;2023-06-14T06:16:50;7.73;;;3.83;;
23250;SDS011;11794;49.730;10.088;2023-06-14T06:19:17;8.23;;;3.75;;
23250;SDS011;11794;49.730;10.088;2023-06-14T06:21:43;8.48;;;3.70;;
23250;SDS011;11794;49.730;10.088;2023-06-14T06:24:08;8.57;;;3.40;;
23250;SDS011;11794;49.730;10.088;2023-06-14T06:26:34;8.30;;;4.17;;
23250;SDS011;11794;49.730;10.088;2023-06-14T06:28:59;10.52;;;3.70;;
23250;SDS011;11794;49.730;10.088;2023-06-14T06:31:25;8.07;;;3.77;;
23250;SDS011;11794;49.730;10.088;2023-06-14T06:33:52;9.98;;;3.88;;
23250;SDS011;11794;49.730;10.088;2023-06-14T06:36:19;9.07;;;3.75;;
23250;SDS011;11794;49.730;10.088;2023-06-14T06:38:46;11.73;;;4.07;;
23250;SDS011;11794;49.730;10.088;2023-06-14T06:41:12;9.10;;;3.53;;
23250;SDS011;11794;49.730;10.088;2023-06-14T06:43:37;9.00;;;3.70;;
23250;SDS011;11794;49.730;10.088;2023-06-14T06:46:03;10.03;;;3.27;;
23250;SDS011;11794;49.730;10.088;2023-06-14T06:48:28;9.63;;;4.00;;
23250;SDS011;11794;49.730;10.088;2023-06-14T06:50:54;10.53;;;4.30;;
23250;SDS011;11794;49.730;10.088;2023-06-14T06:53:20;9.05;;;3.42;;
23250;SDS011;11794;49.730;10.088;2023-06-14T06:55:45;13.07;;;4.23;;
23250;SDS011;11794;49.730;10.088;2023-06-14T06:58:12;9.50;;;3.70;;
23250;SDS011;11794;49.730;10.088;2023-06-14T07:00:38;7.93;;;3.90;;
23250;SDS011;11794;49.730;10.088;2023-06-14T07:03:04;8.30;;;3.53;;
23250;SDS011;11794;49.730;10.088;2023-06-14T07:05:30;7.43;;;3.55;;
23250;SDS011;11794;49.730;10.088;2023-06-14T07:07:56;7.82;;;3.58;;
23250;SDS011;11794;49.730;10.088;2023-06-14T07:10:21;8.60;;;3.60;;
23250;SDS011;11794;49.730;10.088;2023-06-14T07:12:47;8.63;;;3.47;;
23250;SDS011;11794;49.730;10.088;2023-06-14T07:15:12;8.23;;;3.40;;
23250;SDS011;11794;49.730;10.088;2023-06-14T07:17:38;6.87;;;3.27;;
23250;SDS011;11794;49.730;10.088;2023-06-14T07:20:04;8.33;;;3.97;;
23250;SDS011;11794;49.730;10.088;2023-06-14T07:22:33;7.57;;;3.22;;
23250;SDS011;11794;49.730;10.088;2023-06-14T07:24:58;8.50;;;3.78;;
23250;SDS011;11794;49.730;10.088;2023-06-14T07:27:24;9.60;;;2.90;;
23250;SDS011;11794;49.730;10.088;2023-06-14T07:29:50;8.45;;;3.40;;
23250;SDS011;11794;49.730;10.088;2023-06-14T07:32:15;8.90;;;4.00;;
23250;SDS011;11794;49.730;10.088;2023-06-14T07:34:41;10.17;;;3.60;;
23250;SDS011;11794;49.730;10.088;2023-06-14T07:37:06;9.63;;;3.55;;
23250;SDS011;11794;49.730;10.088;2023-06-14T07:39:31;9.27;;;4.03;;
23250;SDS011;11794;49.730;10.088;2023-06-14T07:41:57;7.57;;;3.70;;
23250;SDS011;11794;49.730;10.088;2023-06-14T07:44:22;12.03;;;4.47;;
23250;SDS011;11794;49.730;10.088;2023-06-14T07:46:48;6.90;;;3.50;;
23250;SDS011;11794;49.730;10.088;2023-06-14T07:49:14;11.38;;;4.15;;
23250;SDS011;11794;49.730;10.088;2023-06-14T07:51:40;7.57;;;3.90;;
23250;SDS011;11794;49.730;10.088;2023-06-14T07:54:06;7.13;;;3.53;;
23250;SDS011;11794;49.730;10.088;2023-06-14T07:56:33;7.60;;;3.53;;
23250;SDS011;11794;49.730;10.088;2023-06-14T07:58:59;7.17;;;4.07;;
23250;SDS011;11794;49.730;10.088;2023-06-14T08:01:24;6.78;;;3.83;;
23250;SDS011;11794;49.730;10.088;2023-06-14T08:03:50;9.50;;;3.83;;
23250;SDS011;11794;49.730;10.088;2023-06-14T08:06:16;8.30;;;3.40;;
23250;SDS011;11794;49.730;10.088;2023-06-14T08:08:41;8.33;;;3.53;;
23250;SDS011;11794;49.730;10.088;2023-06-14T08:11:07;11.40;;;3.70;;
23250;SDS011;11794;49.730;10.088;2023-06-14T08:13:32;7.57;;;3.60;;
23250;SDS011;11794;49.730;10.088;2023-06-14T08:15:58;7.27;;;3.73;;
23250;SDS011;11794;49.730;10.088;2023-06-14T08:18:25;6.45;;;3.70;;
23250;SDS011;11794;49.730;10.088;2023-06-14T08:20:51;7.47;;;3.85;;
23250;SDS011;11794;49.730;10.088;2023-06-14T08:23:17;8.60;;;3.90;;
23250;SDS011;11794;49.730;10.088;2023-06-14T08:25:45;7.30;;;3.30;;
23250;SDS011;11794;49.730;10.088;2023-06-14T08:28:11;6.60;;;3.30;;
23250;SDS011;11794;49.730;10.088;2023-06-14T08:30:36;7.53;;;3.30;;
23250;SDS011;11794;49.730;10.088;2023-06-14T08:33:02;9.00;;;3.58;;
23250;SDS011;11794;49.730;10.088;2023-06-14T08:35:28;6.73;;;3.27;;
23250;SDS011;11794;49.730;10.088;2023-06-14T08:37:53;7.43;;;3.35;;
23250;SDS011;11794;49.730;10.088;2023-06-14T08:40:20;6.13;;;3.50;;
23250;SDS011;11794;49.730;10.088;2023-06-14T08:42:47;9.90;;;3.65;;
23250;SDS011;11794;49.730;10.088;2023-06-14T08:45:15;8.15;;;3.55;;
23250;SDS011;11794;49.730;10.088;2023-06-14T08:47:41;10.70;;;3.30;;
23250;SDS011;11794;49.730;10.088;2023-06-14T08:50:07;8.32;;;3.58;;
23250;SDS011;11794;49.730;10.088;2023-06-14T08:52:33;7.30;;;3.53;;
23250;SDS011;11794;49.730;10.088;2023-06-14T08:55:05;6.97;;;3.13;;
23250;SDS011;11794;49.730;10.088;2023-06-14T08:57:33;6.45;;;3.10;;
23250;SDS011;11794;49.730;10.088;2023-06-14T09:00:02;7.55;;;3.88;;
23250;SDS011;11794;49.730;10.088;2023-06-14T09:02:37;6.63;;;3.30;;
23250;SDS011;11794;49.730;10.088;2023-06-14T09:05:03;6.80;;;3.40;;
23250;SDS011;11794;49.730;10.088;2023-06-14T09:07:28;7.60;;;3.25;;
23250;SDS011;11794;49.730;10.088;2023-06-14T09:12:52;10.97;;;3.97;;
23250;SDS011;11794;49.730;10.088;2023-06-14T09:15:17;7.07;;;3.55;;
23250;SDS011;11794;49.730;10.088;2023-06-14T09:17:43;8.13;;;3.57;;
23250;SDS011;11794;49.730;10.088;2023-06-14T09:20:09;6.18;;;3.50;;
23250;SDS011;11794;49.730;10.088;2023-06-14T09:22:35;6.20;;;3.30;;
23250;SDS011;11794;49.730;10.088;2023-06-14T09:25:04;6.77;;;3.00;;
23250;SDS011;11794;49.730;10.088;2023-06-14T09:27:31;7.10;;;3.13;;
23250;SDS011;11794;49.730;10.088;2023-06-14T09:29:57;8.18;;;3.47;;
23250;SDS011;11794;49.730;10.088;2023-06-14T09:32:23;6.90;;;3.35;;
23250;SDS011;11794;49.730;10.088;2023-06-14T09:34:49;9.07;;;3.63;;
23250;SDS011;11794;49.730;10.088;2023-06-14T09:37:26;8.43;;;3.93;;
23250;SDS011;11794;49.730;10.088;2023-06-14T09:39:55;8.23;;;3.22;;
23250;SDS011;11794;49.730;10.088;2023-06-14T09:42:21;5.65;;;3.08;;
23250;SDS011;11794;49.730;10.088;2023-06-14T09:44:51;5.97;;;3.30;;
23250;SDS011;11794;49.730;10.088;2023-06-14T09:47:17;6.85;;;3.80;;
23250;SDS011;11794;49.730;10.088;2023-06-14T09:49:43;7.28;;;3.25;;
23250;SDS011;11794;49.730;10.088;2023-06-14T09:52:16;6.83;;;3.20;;
23250;SDS011;11794;49.730;10.088;2023-06-14T09:54:44;8.87;;;3.17;;
23250;SDS011;11794;49.730;10.088;2023-06-14T09:57:14;6.88;;;3.63;;
23250;SDS011;11794;49.730;10.088;2023-06-14T09:59:45;9.43;;;3.30;;
23250;SDS011;11794;49.730;10.088;2023-06-14T10:02:21;7.43;;;3.97;;
23250;SDS011;11794;49.730;10.088;2023-06-14T10:05:04;6.07;;;3.60;;
23250;SDS011;11794;49.730;10.088;2023-06-14T10:07:35;10.07;;;4.40;;
23250;SDS011;11794;49.730;10.088;2023-06-14T10:10:05;8.43;;;4.05;;
23250;SDS011;11794;49.730;10.088;2023-06-14T10:12:32;8.50;;;3.85;;
23250;SDS011;11794;49.730;10.088;2023-06-14T10:14:58;7.22;;;3.35;;
23250;SDS011;11794;49.730;10.088;2023-06-14T10:17:27;13.47;;;4.00;;
23250;SDS011;11794;49.730;10.088;2023-06-14T10:20:20;6.50;;;3.23;;
23250;SDS011;11794;49.730;10.088;2023-06-14T10:23:07;7.20;;;3.17;;
23250;SDS011;11794;49.730;10.088;2023-06-14T10:25:35;7.85;;;2.97;;
23250;SDS011;11794;49.730;10.088;2023-06-14T10:28:19;7.05;;;3.00;;
23250;SDS011;11794;49.730;10.088;2023-06-14T10:33:29;6.00;;;2.77;;
23250;SDS011;11794;49.730;10.088;2023-06-14T10:38:35;7.55;;;3.05;;
23250;SDS011;11794;49.730;10.088;2023-06-14T10:41:02;6.90;;;2.72;;
23250;SDS011;11794;49.730;10.088;2023-06-14T10:43:28;6.65;;;3.10;;
23250;SDS011;11794;49.730;10.088;2023-06-14T10:48:43;6.15;;;2.50;;
23250;SDS011;11794;49.730;10.088;2023-06-14T10:51:19;7.13;;;2.67;;
23250;SDS011;11794;49.730;10.088;2023-06-14T10:53:46;5.87;;;2.57;;
23250;SDS011;11794;49.730;10.088;2023-06-14T10:56:34;6.65;;;2.72;;
23250;SDS011;11794;49.730;10.088;2023-06-14T10:58:59;6.25;;;2.80;;
23250;SDS011;11794;49.730;10.088;2023-06-14T11:01:38;7.32;;;2.97;;
23250;SDS011;11794;49.730;10.088;2023-06-14T11:04:22;5.63;;;2.70;;
23250;SDS011;11794;49.730;10.088;2023-06-14T11:07:19;6.83;;;2.83;;
23250;SDS011;11794;49.730;10.088;2023-06-14T11:12:22;5.68;;;2.70;;
23250;SDS011;11794;49.730;10.088;2023-06-14T11:14:49;7.45;;;2.70;;
23250;SDS011;11794;49.730;10.088;2023-06-14T11:17:15;5.50;;;2.38;;
23250;SDS011;11794;49.730;10.088;2023-06-14T11:19:41;5.57;;;2.70;;
23250;SDS011;11794;49.730;10.088;2023-06-14T11:22:06;6.67;;;2.50;;
23250;SDS011;11794;49.730;10.088;2023-06-14T11:24:32;6.32;;;2.63;;
23250;SDS011;11794;49.730;10.088;2023-06-14T11:26:58;6.18;;;2.55;;
23250;SDS011;11794;49.730;10.088;2023-06-14T11:29:23;5.60;;;2.50;;
23250;SDS011;11794;49.730;10.088;2023-06-14T11:31:49;5.50;;;2.40;;
23250;SDS011;11794;49.730;10.088;2023-06-14T11:34:15;6.30;;;2.60;;
23250;SDS011;11794;49.730;10.088;2023-06-14T11:36:42;7.65;;;2.47;;
23250;SDS011;11794;49.730;10.088;2023-06-14T11:39:08;6.70;;;2.30;;
23250;SDS011;11794;49.730;10.088;2023-06-14T11:41:43;7.07;;;2.30;;
23250;SDS011;11794;49.730;10.088;2023-06-14T11:44:10;5.80;;;2.40;;
23250;SDS011;11794;49.730;10.088;2023-06-14T11:46:36;5.88;;;2.30;;
23250;SDS011;11794;49.730;10.088;2023-06-14T11:49:03;4.97;;;2.30;;
23250;SDS011;11794;49.730;10.088;2023-06-14T11:51:35;7.93;;;2.65;;
23250;SDS011;11794;49.730;10.088;2023-06-14T11:54:02;6.43;;;2.50;;
23250;SDS011;11794;49.730;10.088;2023-06-14T11:56:29;7.33;;;2.60;;
23250;SDS011;11794;49.730;10.088;2023-06-14T11:58:56;6.15;;;2.40;;
23250;SDS011;11794;49.730;10.088;2023-06-14T12:01:22;5.75;;;2.67;;
23250;SDS011;11794;49.730;10.088;2023-06-14T12:03:52;6.13;;;2.90;;
23250;SDS011;11794;49.730;10.088;2023-06-14T12:06:29;5.68;;;2.67;;
23250;SDS011;11794;49.730;10.088;2023-06-14T12:09:03;10.40;;;2.67;;
23250;SDS011;11794;49.730;10.088;2023-06-14T12:11:32;6.17;;;2.60;;
23250;SDS011;11794;49.730;10.088;2023-06-14T12:13:59;7.88;;;2.33;;
23250;SDS011;11794;49.730;10.088;2023-06-14T12:16:29;6.82;;;2.80;;
23250;SDS011;11794;49.730;10.088;2023-06-14T12:19:08;7.80;;;2.70;;
23250;SDS011;11794;49.730;10.088;2023-06-14T12:21:36;7.18;;;2.80;;
23250;SDS011;11794;49.730;10.088;2023-06-14T12:24:03;6.60;;;2.70;;
23250;SDS011;11794;49.730;10.088;2023-06-14T12:26:31;6.55;;;2.75;;
23250;SDS011;11794;49.730;10.088;2023-06-14T12:28:57;5.97;;;2.90;;
23250;SDS011;11794;49.730;10.088;2023-06-14T12:31:23;7.67;;;2.73;;
23250;SDS011;11794;49.730;10.088;2023-06-14T12:33:49;7.22;;;3.10;;
23250;SDS011;11794;49.730;10.088;2023-06-14T12:36:15;7.25;;;2.90;;
23250;SDS011;11794;49.730;10.088;2023-06-14T12:38:42;6.22;;;2.80;;
23250;SDS011;11794;49.730;10.088;2023-06-14T12:41:08;6.97;;;2.47;;
23250;SDS011;11794;49.730;10.088;2023-06-14T12:43:33;5.38;;;2.67;;
23250;SDS011;11794;49.730;10.088;2023-06-14T12:45:59;5.93;;;2.67;;
23250;SDS011;11794;49.730;10.088;2023-06-14T12:48:25;6.20;;;2.78;;
23250;SDS011;11794;49.730;10.088;2023-06-14T12:50:56;8.32;;;2.88;;
23250;SDS011;11794;49.730;10.088;2023-06-14T12:53:21;8.23;;;2.80;;
23250;SDS011;11794;49.730;10.088;2023-06-14T12:55:48;8.73;;;2.80;;
23250;SDS011;11794;49.730;10.088;2023-06-14T12:58:13;6.20;;;3.23;;
23250;SDS011;11794;49.730;10.088;2023-06-14T13:00:39;7.78;;;3.20;;
23250;SDS011;11794;49.730;10.088;2023-06-14T13:03:05;5.40;;;2.63;;
23250;SDS011;11794;49.730;10.088;2023-06-14T13:05:30;7.15;;;2.65;;
23250;SDS011;11794;49.730;10.088;2023-06-14T13:07:58;7.38;;;2.55;;
23250;SDS011;11794;49.730;10.088;2023-06-14T13:10:24;9.43;;;2.80;;
23250;SDS011;11794;49.730;10.088;2023-06-14T13:12:50;6.97;;;2.80;;
23250;SDS011;11794;49.730;10.088;2023-06-14T13:15:16;5.75;;;2.53;;
23250;SDS011;11794;49.730;10.088;2023-06-14T13:17:42;5.80;;;2.50;;
23250;SDS011;11794;49.730;10.088;2023-06-14T13:20:09;5.32;;;2.50;;
23250;SDS011;11794;49.730;10.088;2023-06-14T13:22:35;5.93;;;2.80;;
23250;SDS011;11794;49.730;10.088;2023-06-14T13:25:01;7.72;;;3.33;;
23250;SDS011;11794;49.730;10.088;2023-06-14T13:27:27;6.85;;;2.60;;
23250;SDS011;11794;49.730;10.088;2023-06-14T13:29:53;7.13;;;2.83;;
23250;SDS011;11794;49.730;10.088;2023-06-14T13:32:20;5.32;;;2.80;;
23250;SDS011;11794;49.730;10.088;2023-06-14T13:34:46;7.45;;;2.83;;
23250;SDS011;11794;49.730;10.088;2023-06-14T13:37:11;5.80;;;3.20;;
23250;SDS011;11794;49.730;10.088;2023-06-14T13:39:37;5.15;;;2.78;;
23250;SDS011;11794;49.730;10.088;2023-06-14T13:42:03;7.40;;;2.70;;
23250;SDS011;11794;49.730;10.088;2023-06-14T13:44:28;6.97;;;2.70;;
23250;SDS011;11794;49.730;10.088;2023-06-14T13:46:54;5.83;;;2.80;;
23250;SDS011;11794;49.730;10.088;2023-06-14T13:49:19;5.10;;;2.60;;
23250;SDS011;11794;49.730;10.088;2023-06-14T13:51:45;6.00;;;2.13;;
23250;SDS011;11794;49.730;10.088;2023-06-14T13:54:12;6.65;;;2.67;;
23250;SDS011;11794;49.730;10.088;2023-06-14T13:56:39;6.47;;;2.33;;
23250;SDS011;11794;49.730;10.088;2023-06-14T13:59:04;5.27;;;2.57;;
23250;SDS011;11794;49.730;10.088;2023-06-14T14:01:30;8.03;;;2.30;;
23250;SDS011;11794;49.730;10.088;2023-06-14T14:03:55;5.05;;;2.10;;
23250;SDS011;11794;49.730;10.088;2023-06-14T14:06:21;5.60;;;2.50;;
23250;SDS011;11794;49.730;10.088;2023-06-14T14:08:47;5.43;;;2.50;;
23250;SDS011;11794;49.730;10.088;2023-06-14T14:11:13;6.63;;;2.30;;
23250;SDS011;11794;49.730;10.088;2023-06-14T14:13:38;6.05;;;2.30;;
23250;SDS011;11794;49.730;10.088;2023-06-14T14:16:05;6.38;;;2.17;;
23250;SDS011;11794;49.730;10.088;2023-06-14T14:18:31;5.73;;;2.20;;
23250;SDS011;11794;49.730;10.088;2023-06-14T14:20:57;5.00;;;2.38;;
23250;SDS011;11794;49.730;10.088;2023-06-14T14:23:23;6.35;;;2.47;;
23250;SDS011;11794;49.730;10.088;2023-06-14T14:25:49;5.17;;;2.17;;
23250;SDS011;11794;49.730;10.088;2023-06-14T14:28:14;5.40;;;2.42;;
23250;SDS011;11794;49.730;10.088;2023-06-14T14:30:41;4.78;;;2.17;;
23250;SDS011;11794;49.730;10.088;2023-06-14T14:33:07;6.13;;;2.30;;
23250;SDS011;11794;49.730;10.088;2023-06-14T14:35:32;5.60;;;2.40;;
23250;SDS011;11794;49.730;10.088;2023-06-14T14:37:58;5.53;;;2.37;;
23250;SDS011;11794;49.730;10.088;2023-06-14T14:40:23;5.67;;;2.50;;
23250;SDS011;11794;49.730;10.088;2023-06-14T14:42:49;5.55;;;2.20;;
23250;SDS011;11794;49.730;10.088;2023-06-14T14:45:15;6.20;;;2.23;;
23250;SDS011;11794;49.730;10.088;2023-06-14T14:47:40;5.45;;;2.03;;